createdAt,value
2023-05-10T00:01:14.436Z,101136.72
2023-05-10T00:06:16.682Z,101137.50
2023-05-10T00:11:19.619Z,101133.94
2023-05-10T00:16:22.966Z,101131.22
2023-05-10T00:21:24.906Z,101135.56
2023-05-10T00:26:27.221Z,101124.03
2023-05-10T00:31:29.241Z,101125.69
2023-05-10T00:36:32.487Z,101129.16
2023-05-10T00:41:34.628Z,101118.50
2023-05-10T00:46:37.454Z,101115.81
2023-05-10T00:51:39.518Z,101121.91
2023-05-10T00:56:42.490Z,101124.53
2023-05-10T01:01:48.124Z,101116.50
2023-05-10T01:06:50.214Z,101121.69
2023-05-10T01:11:52.278Z,101119.81
2023-05-10T01:16:55.242Z,101114.38
2023-05-10T01:22:38.822Z,101106.34
2023-05-10T01:28:29.810Z,101102.78
2023-05-10T01:33:40.520Z,101100.00
2023-05-10T01:38:57.397Z,101098.19
2023-05-10T01:44:19.113Z,101098.09
2023-05-10T01:49:30.376Z,101098.97
2023-05-10T01:54:35.205Z,101088.28
2023-05-10T01:59:42.963Z,101081.19
2023-05-10T02:04:46.437Z,101087.28
2023-05-10T02:09:49.231Z,101088.97
2023-05-10T02:14:54.186Z,101088.00
2023-05-10T02:19:58.792Z,101081.72
2023-05-10T02:25:02.290Z,101076.38
2023-05-10T02:30:06.409Z,101073.66
2023-05-10T02:35:09.639Z,101069.22
2023-05-10T02:40:12.930Z,101079.75
2023-05-10T02:45:18.806Z,101071.72
2023-05-10T02:50:21.538Z,101070.69
2023-05-10T02:55:28.336Z,101075.06
2023-05-10T03:00:30.671Z,101080.25
2023-05-10T03:05:32.476Z,101079.28
2023-05-10T03:10:38.960Z,101091.56
2023-05-10T03:16:04.011Z,101093.28
2023-05-10T03:21:10.180Z,101093.31
2023-05-10T03:26:21.769Z,101092.31
2023-05-10T03:31:23.821Z,101093.19
2023-05-10T03:36:25.803Z,101089.63
2023-05-10T03:41:27.836Z,101085.19
2023-05-10T03:46:29.801Z,101073.69
2023-05-10T03:51:32.377Z,101080.75
2023-05-10T03:56:34.388Z,101076.34
2023-05-10T04:01:36.546Z,101072.84
2023-05-10T04:06:39.385Z,101064.94
2023-05-10T04:11:41.476Z,101065.94
2023-05-10T04:16:43.512Z,101065.22
2023-05-10T04:21:45.522Z,101071.75
2023-05-10T04:26:47.504Z,101072.16
2023-05-10T04:31:50.146Z,101075.34
2023-05-10T04:36:52.232Z,101071.22
2023-05-10T04:41:54.209Z,101076.88
2023-05-10T04:46:56.208Z,101078.06
2023-05-10T04:51:58.440Z,101063.19
2023-05-10T04:57:00.678Z,101059.84
2023-05-10T05:02:02.931Z,101054.59
2023-05-10T05:07:05.085Z,101053.69
2023-05-10T05:12:07.160Z,101049.19
2023-05-10T05:17:09.723Z,101040.22
2023-05-10T05:22:11.883Z,101046.28
2023-05-10T05:27:13.900Z,101047.63
2023-05-10T05:32:15.868Z,101045.81
2023-05-10T05:37:20.439Z,101049.19
2023-05-10T05:42:22.572Z,101034.69
2023-05-10T05:47:25.081Z,101023.56
2023-05-10T05:52:27.449Z,101030.13
2023-05-10T05:57:29.544Z,101034.34
2023-05-10T06:02:31.744Z,101030.00
2023-05-10T06:07:33.861Z,101018.91
2023-05-10T06:12:36.282Z,101036.53
2023-05-10T06:17:38.440Z,101037.09
2023-05-10T06:22:40.574Z,101039.59
2023-05-10T06:27:42.771Z,101028.13
2023-05-10T06:32:46.427Z,101032.56
2023-05-10T06:37:48.743Z,101036.69
2023-05-10T06:42:50.861Z,101040.84
2023-05-10T06:47:52.888Z,101044.13
2023-05-10T06:52:55.838Z,101041.47
2023-05-10T06:57:58.181Z,101029.75
2023-05-10T07:03:00.371Z,101031.88
2023-05-10T07:08:02.906Z,101040.19
2023-05-10T07:13:06.012Z,101056.66
2023-05-10T07:18:08.617Z,101046.72
2023-05-10T07:23:11.019Z,101050.47
2023-05-10T07:28:13.522Z,101037.09
2023-05-10T07:33:17.146Z,101038.50
2023-05-10T07:38:19.268Z,101034.66
2023-05-10T07:43:21.491Z,101033.69
2023-05-10T07:48:23.705Z,101035.03
2023-05-10T07:53:28.402Z,101033.69
2023-05-10T07:58:30.538Z,101033.06
2023-05-10T08:03:32.825Z,101029.19
2023-05-10T08:08:35.133Z,101031.88
2023-05-10T08:13:37.252Z,101035.91
2023-05-10T08:18:40.821Z,101022.03
2023-05-10T08:23:45.286Z,101024.13
2023-05-10T08:28:47.391Z,101032.47
2023-05-10T08:33:49.652Z,101026.44
2023-05-10T08:38:53.429Z,101020.56
2023-05-10T08:43:56.216Z,101027.22
2023-05-10T08:49:03.394Z,101025.28
2023-05-10T08:54:06.908Z,101028.28
2023-05-10T08:59:09.275Z,101019.16
2023-05-10T09:04:11.863Z,101033.06
2023-05-10T09:09:14.147Z,101011.97
2023-05-10T09:14:17.240Z,101012.91
2023-05-10T09:19:19.396Z,101002.38
2023-05-10T09:24:27.189Z,101010.59
2023-05-10T09:29:44.299Z,101008.16
2023-05-10T09:34:47.335Z,101009.06
2023-05-10T09:39:55.769Z,101009.03
2023-05-10T09:45:08.335Z,101009.94
2023-05-10T09:50:11.490Z,101001.13
2023-05-10T09:55:13.684Z,100998.00
2023-05-10T10:00:20.737Z,100983.81
2023-05-10T10:05:29.106Z,100981.97
2023-05-10T10:10:32.903Z,100996.31
2023-05-10T10:15:38.592Z,100999.19
2023-05-10T10:20:41.006Z,100976.03
2023-05-10T10:25:45.695Z,100969.66
2023-05-10T10:30:52.334Z,100973.31
2023-05-10T10:36:01.809Z,100970.19
2023-05-10T10:41:10.906Z,100970.91
2023-05-10T10:46:19.919Z,100947.84
2023-05-10T10:51:22.693Z,100963.19
2023-05-10T10:56:25.594Z,100967.31
2023-05-10T11:01:34.924Z,100950.66
2023-05-10T11:06:37.596Z,100954.81
2023-05-10T11:11:59.844Z,100935.94
2023-05-10T11:17:03.461Z,100961.69
2023-05-10T11:22:05.831Z,100957.50
2023-05-10T11:27:08.200Z,100948.78
2023-05-10T11:32:10.734Z,100940.59
2023-05-10T11:37:13.077Z,100941.78
2023-05-10T11:42:16.065Z,100942.06
2023-05-10T11:47:18.589Z,100923.81
2023-05-10T11:52:21.786Z,100930.25
2023-05-10T11:57:29.865Z,100937.25
2023-05-10T12:02:32.311Z,100930.81
2023-05-10T12:07:34.501Z,100924.84
2023-05-10T12:12:43.293Z,100920.59
2023-05-10T12:17:46.435Z,100931.41
2023-05-10T12:23:00.589Z,100940.38
2023-05-10T12:33:28.174Z,100920.25
2023-05-10T12:38:39.117Z,100914.59
2023-05-10T12:43:42.214Z,100904.41
2023-05-10T12:48:45.826Z,100904.81
2023-05-10T12:53:49.740Z,100919.41
2023-05-10T12:58:52.574Z,100907.69
2023-05-10T13:03:54.904Z,100899.31
2023-05-10T13:08:58.944Z,100893.34
2023-05-10T13:14:01.569Z,100915.25
2023-05-10T13:19:04.576Z,100903.34
2023-05-10T13:24:07.134Z,100904.94
2023-05-10T13:29:09.530Z,100896.53
2023-05-10T13:34:11.915Z,100876.91
2023-05-10T13:39:14.071Z,100896.28
2023-05-10T13:44:16.809Z,100879.03
2023-05-10T13:49:19.005Z,100869.50
2023-05-10T13:54:21.294Z,100867.56
2023-05-10T13:59:23.826Z,100866.09
2023-05-10T14:04:26.941Z,100865.91
2023-05-10T14:09:29.277Z,100860.97
2023-05-10T14:14:31.609Z,100855.72
2023-05-10T14:19:34.928Z,100848.69
2023-05-10T14:24:37.173Z,100844.69
2023-05-10T14:29:39.481Z,100846.69
2023-05-10T14:34:42.280Z,100861.78
2023-05-10T14:39:45.065Z,100854.69
2023-05-10T14:44:47.213Z,100845.56
2023-05-10T14:49:49.483Z,100845.69
2023-05-10T14:54:51.789Z,100844.66
2023-05-10T14:59:54.003Z,100849.09
2023-05-10T15:04:56.691Z,100836.31
2023-05-10T15:09:59.338Z,100837.97
2023-05-10T15:15:01.792Z,100840.25
2023-05-10T15:20:07.611Z,100829.91
2023-05-10T15:25:11.117Z,100837.13
2023-05-10T15:30:13.919Z,100836.84
2023-05-10T15:35:16.679Z,100846.16
2023-05-10T15:40:19.161Z,100844.09
2023-05-10T15:45:21.662Z,100838.06
2023-05-10T15:50:23.745Z,100844.94
2023-05-10T15:55:26.777Z,100839.41
2023-05-10T16:00:29.267Z,100836.38
2023-05-10T16:05:33.846Z,100835.13
2023-05-10T16:10:36.030Z,100839.28
2023-05-10T16:15:38.363Z,100846.53
2023-05-10T16:20:40.571Z,100841.50
2023-05-10T16:25:43.087Z,100857.72
2023-05-10T16:30:45.390Z,100844.22
2023-05-10T16:35:47.817Z,100845.34
2023-05-10T16:40:50.052Z,100841.47
2023-05-10T16:45:52.247Z,100840.53
2023-05-10T16:50:54.462Z,100848.22
2023-05-10T16:55:56.704Z,100843.75
2023-05-10T17:00:58.764Z,100846.81
2023-05-10T17:06:01.058Z,100857.84
2023-05-10T17:11:04.252Z,100858.19
2023-05-10T17:16:07.420Z,100860.94
2023-05-10T17:21:10.048Z,100870.28
2023-05-10T17:26:12.126Z,100870.63
2023-05-10T17:31:14.341Z,100873.66
2023-05-10T17:36:16.775Z,100882.03
2023-05-10T17:41:19.316Z,100881.63
2023-05-10T17:46:21.905Z,100888.16
2023-05-10T17:51:24.808Z,100894.09
2023-05-10T17:56:31.310Z,100888.00
2023-05-10T18:01:35.243Z,100903.63
2023-05-10T18:06:38.779Z,100904.78
2023-05-10T18:11:41.021Z,100905.22
2023-05-10T18:16:43.611Z,100917.34
2023-05-10T18:21:46.328Z,100908.66
2023-05-10T18:26:55.524Z,100917.91
2023-05-10T18:32:18.233Z,100935.28
2023-05-10T18:37:22.213Z,100928.44
2023-05-10T18:42:28.619Z,100948.50
2023-05-10T18:47:31.424Z,100945.19
2023-05-10T18:52:35.300Z,100953.59
2023-05-10T18:57:42.279Z,100954.56
2023-05-10T19:02:45.284Z,100957.63
2023-05-10T19:07:55.048Z,100958.59
2023-05-10T19:12:57.987Z,100972.28
2023-05-10T19:18:03.061Z,100967.19
2023-05-10T19:23:17.129Z,100966.53
2023-05-10T19:28:20.830Z,100967.63
2023-05-10T19:45:23.700Z,100977.03
2023-05-10T19:50:29.296Z,100987.97
2023-05-10T19:55:32.743Z,100984.53
2023-05-10T20:00:35.289Z,100987.41
2023-05-10T20:05:51.051Z,100985.78
2023-05-10T20:10:55.271Z,100987.66
2023-05-10T20:16:27.449Z,100989.59
2023-05-10T20:22:02.885Z,100974.53
2023-05-10T20:27:06.730Z,100987.03
2023-05-10T20:32:13.794Z,100988.00
2023-05-10T20:37:26.874Z,100991.69
2023-05-10T20:42:31.912Z,100990.88
2023-05-10T20:53:41.186Z,100994.59
2023-05-10T20:58:43.406Z,101003.59
2023-05-10T21:03:45.602Z,101003.66
2023-05-10T21:08:48.614Z,101008.19
2023-05-10T21:13:51.724Z,100995.78
2023-05-10T21:19:07.376Z,101006.59
2023-05-10T21:24:11.324Z,101016.44
2023-05-10T21:29:13.395Z,101012.94
2023-05-10T21:34:18.355Z,101014.81
2023-05-10T21:39:21.276Z,101018.38
2023-05-10T21:44:26.038Z,101020.19
2023-05-10T21:49:30.592Z,101022.09
2023-05-10T21:54:33.435Z,101014.13
2023-05-10T21:59:37.302Z,101029.25
2023-05-10T22:04:39.336Z,101028.44
2023-05-10T22:09:43.256Z,101037.34
2023-05-10T22:14:45.555Z,101037.38
2023-05-10T22:19:47.608Z,101031.16
2023-05-10T22:24:49.726Z,101041.00
2023-05-10T22:29:52.021Z,101039.22
2023-05-10T22:34:54.121Z,101037.47
2023-05-10T22:39:56.062Z,101050.84
2023-05-10T22:44:58.975Z,101052.63
2023-05-10T22:50:03.745Z,101055.31
2023-05-10T22:55:07.424Z,101058.03
2023-05-10T23:00:09.825Z,101072.25
2023-05-10T23:05:11.948Z,101066.06
2023-05-10T23:10:14.171Z,101066.06
2023-05-10T23:15:16.373Z,101061.66
2023-05-10T23:20:18.771Z,101067.88
2023-05-10T23:25:21.161Z,101074.09
2023-05-10T23:30:23.302Z,101077.63
2023-05-10T23:35:25.368Z,101081.19
2023-05-10T23:40:27.393Z,101074.97
2023-05-10T23:45:29.287Z,101083.84
2023-05-10T23:50:31.627Z,101084.72
2023-05-10T23:55:33.660Z,101084.69
